Terminal Aerodrome Forecast
Issued by NWS

Home | Current Version | Previous Version | Text Only | Print | Product List | Glossary On
Versions: 1 2 3 4 5 6 7 8 9 10 11 12 13 14 15
197
FTUS41 KPBZ 210520
TAFBVI
TAF
KBVI 210520Z 2106/2206 14003KT P6SM SCT250
     FM211400 22004KT P6SM SCT060
     FM212200 23006KT P6SM SCT250
      AMD NOT SKED=

USA.gov is the U.S. government's official web portal to all federal, state and local government web resources and services.